sensor_id;sensor_type;location;lat;lon;timestamp;P1;durP1;ratioP1;P2;durP2;ratioP2
22357;SDS011;11346;50.150;8.150;2022-09-02T00:00:21;3.47;;;1.90;;
22357;SDS011;11346;50.150;8.150;2022-09-02T00:02:48;3.00;;;1.73;;
22357;SDS011;11346;50.150;8.150;2022-09-02T00:05:16;2.60;;;1.90;;
22357;SDS011;11346;50.150;8.150;2022-09-02T00:07:44;3.50;;;1.77;;
22357;SDS011;11346;50.150;8.150;2022-09-02T00:10:11;6.63;;;1.73;;
22357;SDS011;11346;50.150;8.150;2022-09-02T00:12:39;2.67;;;1.90;;
22357;SDS011;11346;50.150;8.150;2022-09-02T00:15:06;2.00;;;1.70;;
22357;SDS011;11346;50.150;8.150;2022-09-02T00:17:34;1.93;;;1.57;;
22357;SDS011;11346;50.150;8.150;2022-09-02T00:20:01;1.93;;;1.80;;
22357;SDS011;11346;50.150;8.150;2022-09-02T00:22:28;3.77;;;1.83;;
22357;SDS011;11346;50.150;8.150;2022-09-02T00:24:55;2.00;;;1.80;;
22357;SDS011;11346;50.150;8.150;2022-09-02T00:27:22;1.90;;;1.80;;
22357;SDS011;11346;50.150;8.150;2022-09-02T00:29:50;2.43;;;1.90;;
22357;SDS011;11346;50.150;8.150;2022-09-02T00:32:17;3.90;;;1.70;;
22357;SDS011;11346;50.150;8.150;2022-09-02T00:34:44;3.27;;;2.23;;
22357;SDS011;11346;50.150;8.150;2022-09-02T00:37:11;2.40;;;1.90;;
22357;SDS011;11346;50.150;8.150;2022-09-02T00:39:38;1.80;;;1.53;;
22357;SDS011;11346;50.150;8.150;2022-09-02T00:42:06;3.20;;;1.93;;
22357;SDS011;11346;50.150;8.150;2022-09-02T00:44:33;2.03;;;1.90;;
22357;SDS011;11346;50.150;8.150;2022-09-02T00:47:02;3.67;;;2.10;;
22357;SDS011;11346;50.150;8.150;2022-09-02T00:49:30;4.10;;;1.83;;
22357;SDS011;11346;50.150;8.150;2022-09-02T00:51:58;3.17;;;1.90;;
22357;SDS011;11346;50.150;8.150;2022-09-02T00:54:29;3.53;;;1.60;;
22357;SDS011;11346;50.150;8.150;2022-09-02T00:56:56;2.30;;;2.10;;
22357;SDS011;11346;50.150;8.150;2022-09-02T00:59:25;6.47;;;1.90;;
22357;SDS011;11346;50.150;8.150;2022-09-02T01:01:53;3.27;;;1.77;;
22357;SDS011;11346;50.150;8.150;2022-09-02T01:04:22;3.27;;;1.97;;
22357;SDS011;11346;50.150;8.150;2022-09-02T01:06:50;2.33;;;2.00;;
22357;SDS011;11346;50.150;8.150;2022-09-02T01:09:18;2.87;;;1.83;;
22357;SDS011;11346;50.150;8.150;2022-09-02T01:11:45;3.73;;;1.80;;
22357;SDS011;11346;50.150;8.150;2022-09-02T01:14:13;3.27;;;1.90;;
22357;SDS011;11346;50.150;8.150;2022-09-02T01:16:41;2.17;;;2.00;;
22357;SDS011;11346;50.150;8.150;2022-09-02T01:19:09;2.47;;;1.93;;
22357;SDS011;11346;50.150;8.150;2022-09-02T01:21:44;3.83;;;2.17;;
22357;SDS011;11346;50.150;8.150;2022-09-02T01:24:11;2.40;;;2.07;;
22357;SDS011;11346;50.150;8.150;2022-09-02T01:26:38;5.03;;;1.83;;
22357;SDS011;11346;50.150;8.150;2022-09-02T01:29:06;2.77;;;2.00;;
22357;SDS011;11346;50.150;8.150;2022-09-02T01:31:33;2.97;;;1.73;;
22357;SDS011;11346;50.150;8.150;2022-09-02T01:34:00;3.50;;;1.83;;
22357;SDS011;11346;50.150;8.150;2022-09-02T01:36:27;2.13;;;1.90;;
22357;SDS011;11346;50.150;8.150;2022-09-02T01:38:56;2.57;;;1.87;;
22357;SDS011;11346;50.150;8.150;2022-09-02T01:41:23;1.90;;;1.80;;
22357;SDS011;11346;50.150;8.150;2022-09-02T01:43:50;7.10;;;2.07;;
22357;SDS011;11346;50.150;8.150;2022-09-02T01:46:17;1.73;;;1.63;;
22357;SDS011;11346;50.150;8.150;2022-09-02T01:48:44;2.23;;;2.03;;
22357;SDS011;11346;50.150;8.150;2022-09-02T01:51:14;4.30;;;2.17;;
22357;SDS011;11346;50.150;8.150;2022-09-02T01:53:42;3.67;;;2.23;;
22357;SDS011;11346;50.150;8.150;2022-09-02T01:56:10;2.20;;;2.00;;
22357;SDS011;11346;50.150;8.150;2022-09-02T01:58:37;2.97;;;2.30;;
22357;SDS011;11346;50.150;8.150;2022-09-02T02:01:05;1.93;;;1.83;;
22357;SDS011;11346;50.150;8.150;2022-09-02T02:03:32;2.47;;;2.07;;
22357;SDS011;11346;50.150;8.150;2022-09-02T02:05:59;3.23;;;1.87;;
22357;SDS011;11346;50.150;8.150;2022-09-02T02:08:26;2.17;;;1.97;;
22357;SDS011;11346;50.150;8.150;2022-09-02T02:10:53;4.27;;;2.03;;
22357;SDS011;11346;50.150;8.150;2022-09-02T02:13:22;2.70;;;2.10;;
22357;SDS011;11346;50.150;8.150;2022-09-02T02:15:49;2.40;;;2.20;;
22357;SDS011;11346;50.150;8.150;2022-09-02T02:18:16;4.00;;;2.00;;
22357;SDS011;11346;50.150;8.150;2022-09-02T02:20:44;8.63;;;1.83;;
22357;SDS011;11346;50.150;8.150;2022-09-02T02:23:11;2.90;;;2.17;;
22357;SDS011;11346;50.150;8.150;2022-09-02T02:25:38;3.63;;;2.07;;
22357;SDS011;11346;50.150;8.150;2022-09-02T02:28:05;6.03;;;2.10;;
22357;SDS011;11346;50.150;8.150;2022-09-02T02:30:34;2.93;;;2.13;;
22357;SDS011;11346;50.150;8.150;2022-09-02T02:33:01;5.97;;;2.20;;
22357;SDS011;11346;50.150;8.150;2022-09-02T02:35:28;3.03;;;1.90;;
22357;SDS011;11346;50.150;8.150;2022-09-02T02:37:55;2.80;;;1.80;;
22357;SDS011;11346;50.150;8.150;2022-09-02T02:40:22;3.83;;;2.43;;
22357;SDS011;11346;50.150;8.150;2022-09-02T02:42:50;3.33;;;2.00;;
22357;SDS011;11346;50.150;8.150;2022-09-02T02:45:18;2.33;;;2.07;;
22357;SDS011;11346;50.150;8.150;2022-09-02T02:47:46;3.97;;;2.10;;
22357;SDS011;11346;50.150;8.150;2022-09-02T02:50:16;4.73;;;1.90;;
22357;SDS011;11346;50.150;8.150;2022-09-02T02:52:44;4.10;;;1.80;;
22357;SDS011;11346;50.150;8.150;2022-09-02T02:55:11;3.80;;;2.10;;
22357;SDS011;11346;50.150;8.150;2022-09-02T02:57:39;3.27;;;2.00;;
22357;SDS011;11346;50.150;8.150;2022-09-02T03:00:07;2.23;;;1.83;;
22357;SDS011;11346;50.150;8.150;2022-09-02T03:02:36;5.20;;;2.03;;
22357;SDS011;11346;50.150;8.150;2022-09-02T03:05:06;2.33;;;1.90;;
22357;SDS011;11346;50.150;8.150;2022-09-02T03:07:33;2.77;;;2.27;;
22357;SDS011;11346;50.150;8.150;2022-09-02T03:10:00;5.60;;;2.23;;
22357;SDS011;11346;50.150;8.150;2022-09-02T03:12:27;7.53;;;2.10;;
22357;SDS011;11346;50.150;8.150;2022-09-02T03:14:57;2.60;;;1.70;;
22357;SDS011;11346;50.150;8.150;2022-09-02T03:17:24;2.20;;;2.00;;
22357;SDS011;11346;50.150;8.150;2022-09-02T03:19:51;3.57;;;2.23;;
22357;SDS011;11346;50.150;8.150;2022-09-02T03:22:23;3.60;;;2.33;;
22357;SDS011;11346;50.150;8.150;2022-09-02T03:24:50;2.87;;;2.43;;
22357;SDS011;11346;50.150;8.150;2022-09-02T03:27:17;6.37;;;2.27;;
22357;SDS011;11346;50.150;8.150;2022-09-02T03:29:43;4.30;;;2.30;;
22357;SDS011;11346;50.150;8.150;2022-09-02T03:32:11;3.50;;;2.23;;
22357;SDS011;11346;50.150;8.150;2022-09-02T03:34:38;2.20;;;2.00;;
22357;SDS011;11346;50.150;8.150;2022-09-02T03:37:05;3.70;;;2.33;;
22357;SDS011;11346;50.150;8.150;2022-09-02T03:39:34;4.03;;;2.17;;
22357;SDS011;11346;50.150;8.150;2022-09-02T03:42:01;3.07;;;2.00;;
22357;SDS011;11346;50.150;8.150;2022-09-02T03:44:28;2.13;;;1.90;;
22357;SDS011;11346;50.150;8.150;2022-09-02T03:46:55;3.87;;;2.03;;
22357;SDS011;11346;50.150;8.150;2022-09-02T03:49:22;2.50;;;2.30;;
22357;SDS011;11346;50.150;8.150;2022-09-02T03:51:51;2.97;;;2.33;;
22357;SDS011;11346;50.150;8.150;2022-09-02T03:54:18;3.43;;;2.23;;
22357;SDS011;11346;50.150;8.150;2022-09-02T03:56:46;3.03;;;1.90;;
22357;SDS011;11346;50.150;8.150;2022-09-02T03:59:13;3.70;;;2.00;;
22357;SDS011;11346;50.150;8.150;2022-09-02T04:01:40;3.20;;;2.17;;
22357;SDS011;11346;50.150;8.150;2022-09-02T04:04:08;4.10;;;2.00;;
22357;SDS011;11346;50.150;8.150;2022-09-02T04:06:35;2.97;;;2.50;;
22357;SDS011;11346;50.150;8.150;2022-09-02T04:09:02;2.50;;;2.30;;
22357;SDS011;11346;50.150;8.150;2022-09-02T04:11:29;2.20;;;2.00;;
22357;SDS011;11346;50.150;8.150;2022-09-02T04:13:58;2.63;;;1.90;;
22357;SDS011;11346;50.150;8.150;2022-09-02T04:16:25;3.73;;;2.20;;
22357;SDS011;11346;50.150;8.150;2022-09-02T04:18:52;2.47;;;2.27;;
22357;SDS011;11346;50.150;8.150;2022-09-02T04:21:20;2.27;;;2.00;;
22357;SDS011;11346;50.150;8.150;2022-09-02T04:23:47;5.03;;;1.90;;
22357;SDS011;11346;50.150;8.150;2022-09-02T04:26:15;2.20;;;2.00;;
22357;SDS011;11346;50.150;8.150;2022-09-02T04:28:42;4.93;;;2.10;;
22357;SDS011;11346;50.150;8.150;2022-09-02T04:31:11;2.40;;;2.20;;
22357;SDS011;11346;50.150;8.150;2022-09-02T04:33:39;3.63;;;2.20;;
22357;SDS011;11346;50.150;8.150;2022-09-02T04:36:07;2.37;;;2.00;;
22357;SDS011;11346;50.150;8.150;2022-09-02T04:38:34;2.80;;;2.13;;
22357;SDS011;11346;50.150;8.150;2022-09-02T04:41:04;2.30;;;2.07;;
22357;SDS011;11346;50.150;8.150;2022-09-02T04:43:31;2.30;;;2.10;;
22357;SDS011;11346;50.150;8.150;2022-09-02T04:45:58;2.20;;;1.97;;
22357;SDS011;11346;50.150;8.150;2022-09-02T04:48:27;4.77;;;2.20;;
22357;SDS011;11346;50.150;8.150;2022-09-02T04:50:54;1.73;;;1.63;;
22357;SDS011;11346;50.150;8.150;2022-09-02T04:53:21;3.03;;;1.90;;
22357;SDS011;11346;50.150;8.150;2022-09-02T04:55:48;3.23;;;2.20;;
22357;SDS011;11346;50.150;8.150;2022-09-02T04:58:15;2.30;;;2.10;;
22357;SDS011;11346;50.150;8.150;2022-09-02T05:00:42;3.23;;;2.17;;
22357;SDS011;11346;50.150;8.150;2022-09-02T05:03:09;2.23;;;1.90;;
22357;SDS011;11346;50.150;8.150;2022-09-02T05:05:38;3.17;;;2.27;;
22357;SDS011;11346;50.150;8.150;2022-09-02T05:08:05;2.30;;;2.10;;
22357;SDS011;11346;50.150;8.150;2022-09-02T05:10:32;1.90;;;1.80;;
22357;SDS011;11346;50.150;8.150;2022-09-02T05:12:59;2.10;;;1.90;;
22357;SDS011;11346;50.150;8.150;2022-09-02T05:15:27;2.63;;;2.27;;
22357;SDS011;11346;50.150;8.150;2022-09-02T05:17:54;2.40;;;2.20;;
22357;SDS011;11346;50.150;8.150;2022-09-02T05:20:21;2.00;;;1.90;;
22357;SDS011;11346;50.150;8.150;2022-09-02T05:22:51;1.90;;;1.80;;
22357;SDS011;11346;50.150;8.150;2022-09-02T05:25:18;2.30;;;2.10;;
22357;SDS011;11346;50.150;8.150;2022-09-02T05:27:45;3.03;;;1.90;;
22357;SDS011;11346;50.150;8.150;2022-09-02T05:30:12;2.27;;;2.00;;
22357;SDS011;11346;50.150;8.150;2022-09-02T05:32:40;3.07;;;2.10;;
22357;SDS011;11346;50.150;8.150;2022-09-02T05:35:07;5.10;;;2.10;;
22357;SDS011;11346;50.150;8.150;2022-09-02T05:37:34;3.93;;;1.90;;
22357;SDS011;11346;50.150;8.150;2022-09-02T05:40:03;2.90;;;2.00;;
22357;SDS011;11346;50.150;8.150;2022-09-02T05:42:31;3.03;;;2.33;;
22357;SDS011;11346;50.150;8.150;2022-09-02T05:44:58;2.00;;;1.77;;
22357;SDS011;11346;50.150;8.150;2022-09-02T05:47:25;2.53;;;2.00;;
22357;SDS011;11346;50.150;8.150;2022-09-02T05:49:52;3.10;;;1.97;;
22357;SDS011;11346;50.150;8.150;2022-09-02T05:52:19;2.17;;;2.00;;
22357;SDS011;11346;50.150;8.150;2022-09-02T05:54:46;2.20;;;2.10;;
22357;SDS011;11346;50.150;8.150;2022-09-02T05:57:16;3.53;;;1.80;;
22357;SDS011;11346;50.150;8.150;2022-09-02T05:59:43;3.17;;;1.93;;
22357;SDS011;11346;50.150;8.150;2022-09-02T06:02:12;3.93;;;2.30;;
22357;SDS011;11346;50.150;8.150;2022-09-02T06:04:41;4.70;;;2.23;;
22357;SDS011;11346;50.150;8.150;2022-09-02T06:07:08;8.50;;;2.70;;
22357;SDS011;11346;50.150;8.150;2022-09-02T06:09:35;3.43;;;2.03;;
22357;SDS011;11346;50.150;8.150;2022-09-02T06:12:02;1.90;;;1.80;;
22357;SDS011;11346;50.150;8.150;2022-09-02T06:14:31;4.67;;;1.93;;
22357;SDS011;11346;50.150;8.150;2022-09-02T06:16:58;2.90;;;1.67;;
22357;SDS011;11346;50.150;8.150;2022-09-02T06:19:26;2.23;;;1.70;;
22357;SDS011;11346;50.150;8.150;2022-09-02T06:21:54;1.73;;;1.63;;
22357;SDS011;11346;50.150;8.150;2022-09-02T06:24:22;1.97;;;1.77;;
22357;SDS011;11346;50.150;8.150;2022-09-02T06:26:49;4.83;;;2.70;;
22357;SDS011;11346;50.150;8.150;2022-09-02T06:29:17;6.43;;;1.80;;
22357;SDS011;11346;50.150;8.150;2022-09-02T06:31:46;2.00;;;1.90;;
22357;SDS011;11346;50.150;8.150;2022-09-02T06:34:13;1.90;;;1.80;;
22357;SDS011;11346;50.150;8.150;2022-09-02T06:36:41;5.20;;;1.87;;
22357;SDS011;11346;50.150;8.150;2022-09-02T06:39:09;2.00;;;1.80;;
22357;SDS011;11346;50.150;8.150;2022-09-02T06:41:37;2.03;;;1.83;;
22357;SDS011;11346;50.150;8.150;2022-09-02T06:44:05;2.03;;;1.80;;
22357;SDS011;11346;50.150;8.150;2022-09-02T06:46:34;1.70;;;1.60;;
22357;SDS011;11346;50.150;8.150;2022-09-02T06:49:03;2.97;;;1.63;;
22357;SDS011;11346;50.150;8.150;2022-09-02T06:51:31;2.83;;;1.87;;
22357;SDS011;11346;50.150;8.150;2022-09-02T06:53:58;4.27;;;2.20;;
22357;SDS011;11346;50.150;8.150;2022-09-02T06:56:25;1.83;;;1.73;;
22357;SDS011;11346;50.150;8.150;2022-09-02T06:58:53;2.00;;;1.90;;
22357;SDS011;11346;50.150;8.150;2022-09-02T07:01:21;3.83;;;1.80;;
22357;SDS011;11346;50.150;8.150;2022-09-02T07:03:48;1.70;;;1.60;;
22357;SDS011;11346;50.150;8.150;2022-09-02T07:06:34;2.40;;;2.20;;
22357;SDS011;11346;50.150;8.150;2022-09-02T07:09:02;1.60;;;1.50;;
22357;SDS011;11346;50.150;8.150;2022-09-02T07:11:29;2.23;;;2.00;;
22357;SDS011;11346;50.150;8.150;2022-09-02T07:13:57;3.97;;;1.80;;
22357;SDS011;11346;50.150;8.150;2022-09-02T07:16:25;6.07;;;1.93;;
22357;SDS011;11346;50.150;8.150;2022-09-02T07:18:53;2.10;;;1.90;;
22357;SDS011;11346;50.150;8.150;2022-09-02T07:21:20;1.70;;;1.60;;
22357;SDS011;11346;50.150;8.150;2022-09-02T07:23:48;3.73;;;1.90;;
22357;SDS011;11346;50.150;8.150;2022-09-02T07:26:16;3.23;;;2.00;;
22357;SDS011;11346;50.150;8.150;2022-09-02T07:28:43;2.27;;;1.90;;
22357;SDS011;11346;50.150;8.150;2022-09-02T07:31:11;2.23;;;2.00;;
22357;SDS011;11346;50.150;8.150;2022-09-02T07:33:39;2.30;;;1.80;;
22357;SDS011;11346;50.150;8.150;2022-09-02T07:36:06;3.63;;;1.90;;
22357;SDS011;11346;50.150;8.150;2022-09-02T07:38:34;4.23;;;1.80;;
22357;SDS011;11346;50.150;8.150;2022-09-02T07:41:03;1.97;;;1.87;;
22357;SDS011;11346;50.150;8.150;2022-09-02T07:43:31;1.90;;;1.80;;
22357;SDS011;11346;50.150;8.150;2022-09-02T07:45:58;1.60;;;1.50;;
22357;SDS011;11346;50.150;8.150;2022-09-02T07:48:26;3.00;;;1.73;;
22357;SDS011;11346;50.150;8.150;2022-09-02T07:50:54;4.30;;;1.80;;
22357;SDS011;11346;50.150;8.150;2022-09-02T07:53:22;1.70;;;1.60;;
22357;SDS011;11346;50.150;8.150;2022-09-02T07:55:49;2.07;;;1.83;;
22357;SDS011;11346;50.150;8.150;2022-09-02T07:58:18;2.70;;;1.67;;
22357;SDS011;11346;50.150;8.150;2022-09-02T08:00:46;2.30;;;2.10;;
22357;SDS011;11346;50.150;8.150;2022-09-02T08:03:14;1.97;;;1.80;;
22357;SDS011;11346;50.150;8.150;2022-09-02T08:05:42;1.47;;;1.43;;
22357;SDS011;11346;50.150;8.150;2022-09-02T08:08:11;2.10;;;1.90;;
22357;SDS011;11346;50.150;8.150;2022-09-02T08:10:39;1.77;;;1.67;;
22357;SDS011;11346;50.150;8.150;2022-09-02T08:13:06;2.20;;;2.00;;
22357;SDS011;11346;50.150;8.150;2022-09-02T08:15:35;2.77;;;2.20;;
22357;SDS011;11346;50.150;8.150;2022-09-02T08:18:03;3.00;;;1.60;;
22357;SDS011;11346;50.150;8.150;2022-09-02T08:20:30;3.27;;;1.90;;
22357;SDS011;11346;50.150;8.150;2022-09-02T08:22:58;1.70;;;1.60;;
22357;SDS011;11346;50.150;8.150;2022-09-02T08:25:25;2.47;;;1.77;;
22357;SDS011;11346;50.150;8.150;2022-09-02T08:27:52;3.63;;;1.93;;
22357;SDS011;11346;50.150;8.150;2022-09-02T08:30:19;2.10;;;1.83;;
22357;SDS011;11346;50.150;8.150;2022-09-02T08:32:47;4.63;;;2.07;;
22357;SDS011;11346;50.150;8.150;2022-09-02T08:35:14;2.03;;;1.80;;
22357;SDS011;11346;50.150;8.150;2022-09-02T08:37:41;5.13;;;1.70;;
22357;SDS011;11346;50.150;8.150;2022-09-02T08:40:12;3.17;;;1.80;;
22357;SDS011;11346;50.150;8.150;2022-09-02T08:42:41;1.80;;;1.70;;
22357;SDS011;11346;50.150;8.150;2022-09-02T08:45:10;1.90;;;1.80;;
22357;SDS011;11346;50.150;8.150;2022-09-02T08:47:38;4.50;;;2.50;;
22357;SDS011;11346;50.150;8.150;2022-09-02T08:50:09;4.13;;;1.70;;
22357;SDS011;11346;50.150;8.150;2022-09-02T08:52:40;3.03;;;1.67;;
22357;SDS011;11346;50.150;8.150;2022-09-02T08:55:09;2.77;;;1.73;;
22357;SDS011;11346;50.150;8.150;2022-09-02T08:57:38;4.63;;;1.80;;
22357;SDS011;11346;50.150;8.150;2022-09-02T09:00:06;2.87;;;1.90;;
22357;SDS011;11346;50.150;8.150;2022-09-02T09:02:36;4.90;;;1.57;;
22357;SDS011;11346;50.150;8.150;2022-09-02T09:05:12;2.07;;;1.60;;
22357;SDS011;11346;50.150;8.150;2022-09-02T09:07:43;2.23;;;1.67;;
22357;SDS011;11346;50.150;8.150;2022-09-02T09:10:16;2.40;;;1.70;;
22357;SDS011;11346;50.150;8.150;2022-09-02T09:12:52;10.80;;;1.70;;
22357;SDS011;11346;50.150;8.150;2022-09-02T09:15:24;6.10;;;1.70;;
22357;SDS011;11346;50.150;8.150;2022-09-02T09:17:55;4.67;;;1.90;;
22357;SDS011;11346;50.150;8.150;2022-09-02T09:20:25;2.07;;;1.60;;
22357;SDS011;11346;50.150;8.150;2022-09-02T09:22:54;2.10;;;1.70;;
22357;SDS011;11346;50.150;8.150;2022-09-02T09:25:21;2.33;;;1.60;;
22357;SDS011;11346;50.150;8.150;2022-09-02T09:27:53;1.70;;;1.60;;
22357;SDS011;11346;50.150;8.150;2022-09-02T09:30:20;1.93;;;1.80;;
22357;SDS011;11346;50.150;8.150;2022-09-02T09:32:48;2.20;;;1.63;;
22357;SDS011;11346;50.150;8.150;2022-09-02T09:35:18;3.23;;;1.40;;
22357;SDS011;11346;50.150;8.150;2022-09-02T09:37:47;1.87;;;1.67;;
22357;SDS011;11346;50.150;8.150;2022-09-02T09:40:23;1.73;;;1.63;;
22357;SDS011;11346;50.150;8.150;2022-09-02T09:42:52;2.60;;;1.63;;
22357;SDS011;11346;50.150;8.150;2022-09-02T09:45:24;2.00;;;1.43;;
22357;SDS011;11346;50.150;8.150;2022-09-02T09:50:34;1.83;;;1.47;;
22357;SDS011;11346;50.150;8.150;2022-09-02T09:53:13;2.03;;;1.50;;
22357;SDS011;11346;50.150;8.150;2022-09-02T09:55:49;2.77;;;1.70;;
22357;SDS011;11346;50.150;8.150;2022-09-02T09:58:16;3.67;;;1.40;;
22357;SDS011;11346;50.150;8.150;2022-09-02T10:00:43;1.50;;;1.40;;
22357;SDS011;11346;50.150;8.150;2022-09-02T10:03:17;1.17;;;1.07;;
22357;SDS011;11346;50.150;8.150;2022-09-02T10:05:46;1.50;;;1.40;;
22357;SDS011;11346;50.150;8.150;2022-09-02T10:08:19;2.27;;;1.40;;
22357;SDS011;11346;50.150;8.150;2022-09-02T10:10:54;3.23;;;1.80;;
22357;SDS011;11346;50.150;8.150;2022-09-02T10:13:22;1.43;;;1.33;;
22357;SDS011;11346;50.150;8.150;2022-09-02T10:15:53;1.73;;;1.60;;
22357;SDS011;11346;50.150;8.150;2022-09-02T10:18:25;1.43;;;1.33;;
22357;SDS011;11346;50.150;8.150;2022-09-02T10:20:56;1.50;;;1.40;;
22357;SDS011;11346;50.150;8.150;2022-09-02T10:23:30;3.90;;;1.67;;
22357;SDS011;11346;50.150;8.150;2022-09-02T10:26:02;5.80;;;1.60;;
22357;SDS011;11346;50.150;8.150;2022-09-02T10:28:34;2.20;;;1.20;;
22357;SDS011;11346;50.150;8.150;2022-09-02T10:31:07;3.37;;;1.23;;
22357;SDS011;11346;50.150;8.150;2022-09-02T10:33:38;3.40;;;1.47;;
22357;SDS011;11346;50.150;8.150;2022-09-02T10:36:09;1.50;;;1.40;;
22357;SDS011;11346;50.150;8.150;2022-09-02T10:38:39;2.83;;;1.23;;
22357;SDS011;11346;50.150;8.150;2022-09-02T10:41:11;6.73;;;1.27;;
22357;SDS011;11346;50.150;8.150;2022-09-02T10:43:56;2.20;;;1.57;;
22357;SDS011;11346;50.150;8.150;2022-09-02T10:46:25;3.27;;;1.50;;
22357;SDS011;11346;50.150;8.150;2022-09-02T10:48:55;1.30;;;1.20;;
22357;SDS011;11346;50.150;8.150;2022-09-02T10:51:28;2.60;;;1.37;;
22357;SDS011;11346;50.150;8.150;2022-09-02T10:54:06;1.63;;;1.53;;
22357;SDS011;11346;50.150;8.150;2022-09-02T10:56:38;1.87;;;1.40;;
22357;SDS011;11346;50.150;8.150;2022-09-02T10:59:07;1.83;;;1.67;;
22357;SDS011;11346;50.150;8.150;2022-09-02T11:01:39;4.27;;;1.50;;
22357;SDS011;11346;50.150;8.150;2022-09-02T11:04:07;1.40;;;1.30;;
22357;SDS011;11346;50.150;8.150;2022-09-02T11:06:36;3.03;;;1.50;;
22357;SDS011;11346;50.150;8.150;2022-09-02T11:09:06;6.17;;;1.70;;
22357;SDS011;11346;50.150;8.150;2022-09-02T11:11:36;2.70;;;1.60;;
22357;SDS011;11346;50.150;8.150;2022-09-02T11:14:13;3.33;;;1.40;;
22357;SDS011;11346;50.150;8.150;2022-09-02T11:16:41;1.97;;;1.40;;
22357;SDS011;11346;50.150;8.150;2022-09-02T11:19:12;2.20;;;1.50;;
22357;SDS011;11346;50.150;8.150;2022-09-02T11:21:48;2.53;;;1.23;;
22357;SDS011;11346;50.150;8.150;2022-09-02T11:24:19;3.63;;;1.60;;
22357;SDS011;11346;50.150;8.150;2022-09-02T11:26:50;1.87;;;1.20;;
22357;SDS011;11346;50.150;8.150;2022-09-02T11:29:20;2.20;;;1.50;;
22357;SDS011;11346;50.150;8.150;2022-09-02T11:31:54;2.60;;;1.57;;
22357;SDS011;11346;50.150;8.150;2022-09-02T11:34:25;2.47;;;1.47;;
22357;SDS011;11346;50.150;8.150;2022-09-02T11:37:00;4.37;;;1.70;;
22357;SDS011;11346;50.150;8.150;2022-09-02T11:39:30;2.23;;;1.60;;
22357;SDS011;11346;50.150;8.150;2022-09-02T11:42:02;1.43;;;1.37;;
22357;SDS011;11346;50.150;8.150;2022-09-02T11:44:40;1.97;;;1.30;;
22357;SDS011;11346;50.150;8.150;2022-09-02T11:50:00;2.50;;;1.47;;
22357;SDS011;11346;50.150;8.150;2022-09-02T11:52:33;1.70;;;1.20;;
22357;SDS011;11346;50.150;8.150;2022-09-02T11:55:09;1.63;;;1.50;;
22357;SDS011;11346;50.150;8.150;2022-09-02T11:57:40;4.07;;;1.23;;
22357;SDS011;11346;50.150;8.150;2022-09-02T12:00:10;1.33;;;1.20;;
22357;SDS011;11346;50.150;8.150;2022-09-02T12:02:40;1.10;;;1.10;;
22357;SDS011;11346;50.150;8.150;2022-09-02T12:07:54;3.97;;;1.30;;
22357;SDS011;11346;50.150;8.150;2022-09-02T12:13:09;1.47;;;1.07;;
22357;SDS011;11346;50.150;8.150;2022-09-02T12:15:36;1.10;;;1.00;;
22357;SDS011;11346;50.150;8.150;2022-09-02T12:18:05;1.80;;;1.10;;
22357;SDS011;11346;50.150;8.150;2022-09-02T12:26:20;3.20;;;1.23;;
22357;SDS011;11346;50.150;8.150;2022-09-02T12:28:49;3.40;;;1.40;;
22357;SDS011;11346;50.150;8.150;2022-09-02T12:31:17;1.10;;;1.10;;
22357;SDS011;11346;50.150;8.150;2022-09-02T12:36:46;1.20;;;1.10;;
22357;SDS011;11346;50.150;8.150;2022-09-02T12:42:02;1.30;;;1.20;;
22357;SDS011;11346;50.150;8.150;2022-09-02T12:44:31;1.30;;;1.20;;
22357;SDS011;11346;50.150;8.150;2022-09-02T12:47:04;1.40;;;1.30;;
22357;SDS011;11346;50.150;8.150;2022-09-02T12:49:35;1.77;;;1.20;;
22357;SDS011;11346;50.150;8.150;2022-09-02T12:52:03;3.97;;;1.13;;
22357;SDS011;11346;50.150;8.150;2022-09-02T12:54:34;2.20;;;1.77;;
22357;SDS011;11346;50.150;8.150;2022-09-02T12:57:02;5.03;;;1.43;;
22357;SDS011;11346;50.150;8.150;2022-09-02T12:59:30;1.57;;;1.30;;
22357;SDS011;11346;50.150;8.150;2022-09-02T13:02:05;1.27;;;1.17;;
22357;SDS011;11346;50.150;8.150;2022-09-02T13:04:36;1.80;;;1.30;;
22357;SDS011;11346;50.150;8.150;2022-09-02T13:09:56;1.43;;;1.33;;
22357;SDS011;11346;50.150;8.150;2022-09-02T13:12:43;2.77;;;1.53;;
22357;SDS011;11346;50.150;8.150;2022-09-02T13:15:18;3.63;;;1.47;;
22357;SDS011;11346;50.150;8.150;2022-09-02T13:17:59;1.33;;;1.23;;
22357;SDS011;11346;50.150;8.150;2022-09-02T13:20:43;2.47;;;1.30;;
22357;SDS011;11346;50.150;8.150;2022-09-02T13:23:24;1.47;;;1.37;;
22357;SDS011;11346;50.150;8.150;2022-09-02T13:26:16;1.93;;;1.70;;
22357;SDS011;11346;50.150;8.150;2022-09-02T13:28:53;1.30;;;1.20;;
22357;SDS011;11346;50.150;8.150;2022-09-02T13:31:23;3.53;;;1.40;;
22357;SDS011;11346;50.150;8.150;2022-09-02T13:33:57;3.00;;;1.60;;
22357;SDS011;11346;50.150;8.150;2022-09-02T13:36:25;3.43;;;1.57;;
22357;SDS011;11346;50.150;8.150;2022-09-02T13:38:53;1.67;;;1.33;;
22357;SDS011;11346;50.150;8.150;2022-09-02T13:41:27;1.40;;;1.30;;
22357;SDS011;11346;50.150;8.150;2022-09-02T13:44:03;1.93;;;1.20;;
22357;SDS011;11346;50.150;8.150;2022-09-02T13:46:30;1.37;;;1.30;;
22357;SDS011;11346;50.150;8.150;2022-09-02T13:48:59;1.47;;;1.37;;
22357;SDS011;11346;50.150;8.150;2022-09-02T13:51:26;5.47;;;1.23;;
22357;SDS011;11346;50.150;8.150;2022-09-02T13:53:53;1.30;;;1.17;;
22357;SDS011;11346;50.150;8.150;2022-09-02T13:56:24;1.67;;;1.30;;
22357;SDS011;11346;50.150;8.150;2022-09-02T13:58:54;2.10;;;1.50;;
22357;SDS011;11346;50.150;8.150;2022-09-02T14:01:22;3.17;;;1.20;;
22357;SDS011;11346;50.150;8.150;2022-09-02T14:03:50;1.37;;;1.27;;
22357;SDS011;11346;50.150;8.150;2022-09-02T14:06:20;1.77;;;1.30;;
22357;SDS011;11346;50.150;8.150;2022-09-02T14:08:48;1.50;;;1.23;;
22357;SDS011;11346;50.150;8.150;2022-09-02T14:11:16;1.57;;;1.40;;
22357;SDS011;11346;50.150;8.150;2022-09-02T14:13:45;4.10;;;1.30;;
22357;SDS011;11346;50.150;8.150;2022-09-02T14:16:26;1.70;;;1.30;;
22357;SDS011;11346;50.150;8.150;2022-09-02T14:19:06;4.90;;;1.53;;
22357;SDS011;11346;50.150;8.150;2022-09-02T14:21:36;1.50;;;1.40;;
22357;SDS011;11346;50.150;8.150;2022-09-02T14:24:03;6.03;;;1.37;;
22357;SDS011;11346;50.150;8.150;2022-09-02T14:26:31;4.03;;;1.17;;
22357;SDS011;11346;50.150;8.150;2022-09-02T14:28:59;2.07;;;1.20;;
22357;SDS011;11346;50.150;8.150;2022-09-02T14:31:27;1.40;;;1.30;;
22357;SDS011;11346;50.150;8.150;2022-09-02T14:33:58;6.93;;;1.27;;
22357;SDS011;11346;50.150;8.150;2022-09-02T14:36:30;2.73;;;1.40;;
22357;SDS011;11346;50.150;8.150;2022-09-02T14:39:09;5.00;;;1.43;;
22357;SDS011;11346;50.150;8.150;2022-09-02T14:41:40;1.30;;;1.30;;
22357;SDS011;11346;50.150;8.150;2022-09-02T14:44:09;1.70;;;1.00;;
22357;SDS011;11346;50.150;8.150;2022-09-02T14:46:42;1.27;;;1.17;;
22357;SDS011;11346;50.150;8.150;2022-09-02T14:49:10;2.40;;;1.23;;
22357;SDS011;11346;50.150;8.150;2022-09-02T14:51:39;3.93;;;1.30;;
22357;SDS011;11346;50.150;8.150;2022-09-02T14:54:10;2.67;;;1.27;;
22357;SDS011;11346;50.150;8.150;2022-09-02T14:56:45;1.13;;;1.10;;
22357;SDS011;11346;50.150;8.150;2022-09-02T14:59:12;2.13;;;1.23;;
22357;SDS011;11346;50.150;8.150;2022-09-02T15:01:39;1.40;;;1.30;;
22357;SDS011;11346;50.150;8.150;2022-09-02T15:04:10;2.63;;;1.27;;
22357;SDS011;11346;50.150;8.150;2022-09-02T15:06:38;1.37;;;1.27;;
22357;SDS011;11346;50.150;8.150;2022-09-02T15:09:05;3.40;;;1.33;;
22357;SDS011;11346;50.150;8.150;2022-09-02T15:11:33;2.93;;;1.30;;
22357;SDS011;11346;50.150;8.150;2022-09-02T15:14:00;5.20;;;1.33;;
22357;SDS011;11346;50.150;8.150;2022-09-02T15:16:27;1.40;;;1.30;;
22357;SDS011;11346;50.150;8.150;2022-09-02T15:18:54;4.40;;;1.20;;
22357;SDS011;11346;50.150;8.150;2022-09-02T15:21:21;0.93;;;0.93;;
22357;SDS011;11346;50.150;8.150;2022-09-02T15:23:48;1.87;;;1.10;;